Latest Weather Observations for Gabo Island

IDV60801

Issued at 11:13 pm EDT Friday 23 October 2020 (issued every 10 minutes, with the page automatically refreshed every 10 minutes)

About weather observations | Map of weather stations | Latest weather observations for VIC | Other Formats
Station Details ID: 084016 Name: GABO ISLAND LIGHTHOUSE Lat: -37.57 Lon: 149.92 Height: 15.0 m
Data from the previous 72 hours. | See also: Recent months at Gabo Island
Date/Time
EDT
Temp
°C
App
Temp
°C
Dew
Point
°C
Rel
Hum
%
Delta-T
°C
Wind Press
QNH
hPa
Press
MSL
hPa
Rain since
9am
mm
Dir  Spd
km/h
Gust
km/h
Spd
kts
Gust
kts
23/11:00pm 17.7 15.6 16.2 91 0.9 NNE 22 28 12 15 1006.4 1006.4 3.2
23/10:30pm 17.4 15.9 16.2 93 0.7 N 19 24 10 13 1007.0 1007.0 3.2
23/10:00pm 16.7 14.9 15.9 95 0.5 NE 20 26 11 14 1007.3 1007.3 3.2
23/09:30pm 16.7 14.8 15.7 94 0.6 NE 20 24 11 13 1007.6 1007.6 3.2
23/09:00pm 16.8 14.9 15.8 94 0.6 NE 20 28 11 15 1008.2 1008.2 3.2
23/08:30pm 16.6 15.3 15.7 94 0.5 NE 17 20 9 11 1008.3 1008.3 3.2
23/08:00pm 17.2 15.4 16.0 93 0.7 N 20 28 11 15 1008.5 1008.5 3.0
23/07:30pm 17.3 15.5 16.1 93 0.7 NNE 20 26 11 14 1008.6 1008.6 3.0
23/07:00pm 16.9 13.4 15.5 91 0.8 NE 28 32 15 17 1007.8 1007.8 2.8
23/06:30pm 17.6 16.0 16.1 91 0.9 NNE 19 26 10 14 1008.5 1008.5 2.0
23/06:00pm 17.9 19.3 16.4 91 0.9 ENE 4 13 2 7 1008.8 1008.8 0.6
23/05:30pm 18.0 17.6 16.3 90 1.0 NNW 13 19 7 10 1008.3 1008.3 0.6
23/05:00pm 17.8 15.7 16.3 91 0.9 NNE 22 26 12 14 1007.7 1007.7 0.6
23/04:30pm 17.2 14.3 16.2 94 0.6 NNE 26 30 14 16 1007.6 1007.6 0.6
23/04:00pm 17.0 14.8 16.0 94 0.6 NE 22 26 12 14 1008.0 1008.0 0.6
23/03:30pm 16.9 13.5 15.7 93 0.7 NE 28 32 15 17 1008.3 1008.3 0.6
23/03:28pm 16.9 13.5 15.7 93 0.7 NE 28 32 15 17 1008.4 1008.4 0.6
23/03:00pm 17.1 16.8 15.4 90 1.0 ENE 11 15 6 8 1009.3 1009.3 0.6
23/02:30pm 17.2 16.0 15.1 87 1.2 NNE 15 24 8 13 1010.3 1010.3 0.0
23/02:00pm 17.6 13.4 15.6 88 1.2 SSW 32 41 17 22 1009.8 1009.8 0.0
23/01:30pm 18.6 15.4 15.4 81 1.9 NNE 26 32 14 17 1008.9 1008.9 0.0
23/01:00pm 18.8 13.9 15.4 80 2.0 NNE 35 39 19 21 1008.5 1008.5 0.0
23/12:30pm 19.8 14.9 15.2 75 2.7 NNE 35 41 19 22 1008.6 1008.6 0.0
23/12:00pm 20.2 15.4 15.5 74 2.8 NNE 35 44 19 24 1008.9 1008.9 0.0
23/11:30am 20.4 15.1 15.2 72 3.1 NNE 37 44 20 24 1009.2 1009.2 0.0
23/11:00am 19.0 14.5 15.3 79 2.2 NE 33 39 18 21 1009.6 1009.6 0.0
23/10:30am 19.2 14.7 14.9 76 2.5 NE 32 43 17 23 1009.8 1009.8 0.0
23/10:00am 19.4 15.7 15.1 76 2.5 NE 28 32 15 17 1010.2 1010.2 0.0
23/09:30am 17.7 14.0 15.1 85 1.5 NE 28 32 15 17 1010.4 1010.4 0.0
23/09:00am 18.1 15.1 14.8 81 1.9 NE 24 32 13 17 1010.8 1010.8 0.0
23/08:30am 16.9 13.9 14.8 87 1.2 NE 24 28 13 15 1011.2 1011.2 0.0
23/08:00am 16.5 13.2 14.9 90 0.9 NE 26 32 14 17 1011.3 1011.3 0.0
23/07:30am 16.4 13.8 14.8 90 0.9 NNE 22 28 12 15 1011.2 1011.2 0.0
23/07:00am 15.7 13.0 14.7 94 0.6 NE 22 26 12 14 1011.8 1011.8 0.0
23/06:30am 15.6 12.9 14.6 94 0.6 NE 22 26 12 14 1011.3 1011.3 0.0
23/06:00am 15.4 13.5 14.3 93 0.6 ENE 17 19 9 10 1011.3 1011.3 0.0
23/05:30am 14.8 14.6 13.7 93 0.6 N 7 11 4 6 1012.4 1012.4 0.0
23/05:00am 14.9 14.4 13.8 93 0.6 N 9 11 5 6 1011.8 1011.8 0.0
23/04:30am 14.3 13.3 13.4 94 0.5 N 11 15 6 8 1011.9 1011.9 0.0
23/04:00am 14.4 13.0 13.5 94 0.5 N 13 17 7 9 1011.9 1011.9 0.0
23/03:30am 14.6 13.3 13.7 94 0.5 NNE 13 15 7 8 1012.0 1012.0 0.0
23/03:00am 14.5 14.2 13.2 92 0.7 NNE 7 11 4 6 1012.3 1012.3 0.0
23/02:30am 13.9 13.1 12.8 93 0.6 NNE 9 11 5 6 1012.8 1012.8 0.0
23/02:00am 15.0 14.5 13.8 92 0.7 NNE 9 9 5 5 1013.4 1013.4 0.0
23/01:30am 15.4 16.7 14.0 91 0.8 CALM 0 0 0 0 1014.1 1014.1 0.0
23/01:00am 15.4 16.7 14.0 91 0.8 CALM 0 0 0 0 1014.7 1014.7 0.0
23/12:30am 15.3 15.2 13.9 91 0.8 WNW 7 9 4 5 1015.0 1015.0 0.0
23/12:00am 15.2 14.7 13.8 91 0.8 NW 9 9 5 5 1015.3 1015.3 0.0
 
Date/Time
EDT
Temp
°C
App
Temp
°C
Dew
Point
°C
Rel
Hum
%
Delta-T
°C
Wind Press
QNH
hPa
Press
MSL
hPa
Rain since
9am
mm
Dir  Spd
km/h
Gust
km/h
Spd
kts
Gust
kts
22/11:30pm 15.4 14.9 13.8 90 0.9 WNW 9 11 5 6 1015.8 1015.8 0.0
22/11:00pm 15.4 14.9 13.8 90 0.9 WNW 9 11 5 6 1015.5 1015.5 0.0
22/10:30pm 15.5 16.7 13.7 89 1.0 CALM 0 0 0 0 1015.6 1015.6 0.0
22/10:00pm 15.6 16.0 13.8 89 1.0 S 4 7 2 4 1015.5 1015.5 0.0
22/09:30pm 15.8 15.9 14.0 89 1.0 E 6 7 3 4 1015.5 1015.5 0.0
22/09:00pm 16.1 16.0 13.8 86 1.3 E 7 11 4 6 1015.3 1015.3 0.0
22/08:30pm 16.2 15.6 13.5 84 1.5 SE 9 11 5 6 1015.1 1015.1 0.0
22/08:00pm 16.3 15.7 13.6 84 1.5 ENE 9 11 5 6 1015.1 1015.1 0.0
22/07:30pm 16.4 15.3 13.2 81 1.8 E 11 13 6 7 1015.1 1015.1 0.0
22/07:00pm 16.7 16.0 13.3 80 1.9 ESE 9 13 5 7 1015.2 1015.2 0.0
22/06:30pm 16.7 15.6 13.1 79 2.0 SE 11 13 6 7 1014.8 1014.8 0.0
22/06:00pm 17.2 16.2 13.3 78 2.2 SE 11 15 6 8 1014.6 1014.6 0.0
22/05:30pm 17.4 15.9 13.1 76 2.4 SE 13 15 7 8 1014.7 1014.7 0.0
22/05:00pm 17.4 16.3 13.1 76 2.4 SE 11 17 6 9 1014.4 1014.4 0.0
22/04:30pm 17.2 14.6 13.3 78 2.2 SSE 19 24 10 13 1014.4 1014.4 0.0
22/04:00pm 17.6 15.4 13.3 76 2.4 SE 17 20 9 11 1014.6 1014.6 0.0
22/03:30pm 18.1 16.4 13.7 75 2.5 SSE 15 20 8 11 1014.6 1014.6 0.0
22/03:00pm 18.0 16.3 13.6 75 2.5 SSE 15 20 8 11 1014.8 1014.8 0.0
22/02:30pm 18.1 16.6 13.1 72 2.8 SE 13 17 7 9 1015.0 1015.0 0.0
22/02:00pm 18.2 17.0 12.8 71 3.0 SE 11 15 6 8 1015.2 1015.2 0.0
22/01:30pm 18.2 16.9 12.6 70 3.1 SE 11 15 6 8 1015.2 1015.2 0.0
22/01:00pm 18.3 17.1 12.8 70 3.1 SE 11 15 6 8 1015.3 1015.3 0.0
22/12:30pm 17.4 17.0 13.1 76 2.4 SSW 7 9 4 5 1015.4 1015.4 0.0
22/12:00pm 17.0 16.1 12.5 75 2.5 SW 9 13 5 7 1015.9 1015.9 0.0
22/11:30am 16.3 15.6 12.1 76 2.3 SW 7 9 4 5 1016.1 1016.1 0.0
22/11:00am 16.2 14.8 12.2 77 2.2 SW 11 13 6 7 1016.4 1016.4 0.0
22/10:30am 16.2 14.5 12.4 78 2.1 WSW 13 15 7 8 1016.6 1016.6 0.0
22/10:00am 15.7 13.9 12.2 80 1.9 WSW 13 17 7 9 1016.8 1016.8 0.0
22/09:30am 15.4 13.6 12.1 81 1.8 WSW 13 15 7 8 1016.7 1016.7 0.0
22/09:00am 15.0 13.2 12.0 82 1.6 WSW 13 15 7 8 1016.8 1016.8 0.0
22/08:30am 15.2 13.9 12.5 84 1.5 WSW 11 13 6 7 1016.6 1016.6 0.0
22/08:00am 14.7 12.4 11.9 83 1.5 WSW 15 17 8 9 1016.6 1016.6 0.0
22/07:30am 14.5 12.2 11.9 84 1.4 WSW 15 17 8 9 1016.7 1016.7 0.0
22/07:00am 14.4 11.8 12.0 85 1.3 WSW 17 20 9 11 1016.3 1016.3 0.0
22/06:30am 14.4 11.4 12.0 85 1.3 SW 19 22 10 12 1016.1 1016.1 0.0
22/06:00am 14.5 11.0 12.3 87 1.2 SW 22 26 12 14 1015.8 1015.8 0.0
22/05:30am 14.3 11.7 12.1 87 1.2 SW 17 20 9 11 1015.5 1015.5 0.0
22/05:00am 14.3 10.5 12.5 89 1.0 SW 24 28 13 15 1015.7 1015.7 0.0
22/04:30am 14.3 10.5 12.5 89 1.0 SW 24 28 13 15 1015.8 1015.8 0.0
22/04:00am 14.3 10.9 12.5 89 1.0 SW 22 28 12 15 1015.8 1015.8 0.0
22/03:30am 14.3 11.0 12.7 90 0.9 SW 22 26 12 14 1015.7 1015.7 0.0
22/03:00am 14.5 11.2 12.7 89 1.0 SW 22 26 12 14 1015.9 1015.9 0.0
22/02:30am 14.6 11.7 13.0 90 0.9 SW 20 24 11 13 1016.0 1016.0 0.0
22/02:00am 14.6 11.9 13.0 90 0.9 WSW 19 20 10 11 1016.3 1016.3 0.0
22/01:30am 14.7 12.4 13.1 90 0.9 WSW 17 22 9 12 1016.5 1016.5 0.0
22/01:00am 14.9 12.5 12.7 87 1.2 WSW 17 20 9 11 1016.8 1016.8 0.0
22/12:30am 14.9 12.6 12.9 88 1.1 WSW 17 20 9 11 1017.0 1017.0 0.0
22/12:00am 14.9 13.0 12.9 88 1.1 WSW 15 19 8 10 1017.0 1017.0 0.0
 
Date/Time
EDT
Temp
°C
App
Temp
°C
Dew
Point
°C
Rel
Hum
%
Delta-T
°C
Wind Press
QNH
hPa
Press
MSL
hPa
Rain since
9am
mm
Dir  Spd
km/h
Gust
km/h
Spd
kts
Gust
kts
21/11:30pm 15.0 13.1 13.0 88 1.1 WSW 15 19 8 10 1017.1 1017.1 0.0
21/11:00pm 15.0 12.7 13.0 88 1.1 WSW 17 20 9 11 1017.0 1017.0 0.0
21/10:30pm 15.1 12.9 13.3 89 1.0 SW 17 19 9 10 1017.0 1017.0 0.0
21/10:00pm 15.2 12.0 13.2 88 1.1 SW 22 28 12 15 1017.0 1017.0 0.0
21/09:30pm 15.2 12.1 13.4 89 1.0 SW 22 28 12 15 1016.9 1016.9 0.0
21/09:00pm 15.3 11.0 13.3 88 1.1 SW 28 32 15 17 1016.4 1016.4 0.0
21/08:30pm 15.3 11.2 13.7 90 0.9 SW 28 33 15 18 1016.1 1016.1 0.0
21/08:00pm 15.4 12.0 13.8 90 0.9 SW 24 30 13 16 1015.7 1015.7 0.0
21/07:30pm 15.5 12.6 14.1 91 0.8 WSW 22 28 12 15 1015.3 1015.3 0.0
21/07:00pm 15.7 13.2 14.1 90 0.9 WSW 20 26 11 14 1014.9 1014.9 0.0
21/06:30pm 15.9 13.6 14.1 89 1.0 SW 19 22 10 12 1014.6 1014.6 0.0
21/06:00pm 16.0 14.1 14.2 89 1.0 WSW 17 19 9 10 1014.6 1014.6 0.0
21/05:30pm 15.8 14.2 14.0 89 1.0 SW 15 19 8 10 1014.4 1014.4 0.0
21/05:00pm 15.8 13.8 14.0 89 1.0 SW 17 19 9 10 1014.2 1014.2 0.0
21/04:30pm 16.0 14.4 13.9 87 1.2 SSW 15 17 8 9 1014.1 1014.1 0.0
21/04:00pm 16.6 15.4 14.1 85 1.4 S 13 15 7 8 1013.8 1013.8 0.0
21/03:30pm 16.8 15.6 14.0 83 1.6 S 13 15 7 8 1014.1 1014.1 0.0
21/03:00pm 17.8 16.2 13.9 78 2.2 S 15 17 8 9 1014.3 1014.3 0.0
21/02:30pm 18.0 16.8 14.0 77 2.3 SSE 13 17 7 9 1014.3 1014.3 0.0
21/02:00pm 18.0 16.0 13.8 76 2.4 S 17 20 9 11 1014.5 1014.5 0.0
21/01:30pm 17.6 15.5 13.5 77 2.3 S 17 20 9 11 1014.7 1014.7 0.0
21/01:00pm 17.7 15.5 13.3 75 2.5 S 17 19 9 10 1014.9 1014.9 0.0
21/12:30pm 17.3 15.1 13.2 77 2.3 S 17 19 9 10 1014.9 1014.9 0.0
21/12:00pm 17.4 15.2 13.3 77 2.3 S 17 20 9 11 1015.2 1015.2 0.0
21/11:30am 17.5 16.2 13.6 78 2.2 SSE 13 15 7 8 1015.3 1015.3 0.0
21/11:00am 16.4 14.9 13.0 80 1.9 SSE 13 15 7 8 1015.6 1015.6 0.0
21/10:30am 16.7 15.7 13.3 80 1.9 S 11 13 6 7 1015.7 1015.7 0.0
21/10:00am 15.8 15.0 12.9 83 1.6 SSW 9 13 5 7 1015.9 1015.9 0.0
21/09:30am 15.7 14.6 13.0 84 1.5 SSW 11 13 6 7 1016.0 1016.0 0.0
21/09:00am 15.2 13.9 12.6 84 1.4 WSW 11 13 6 7 1016.0 1016.0 0.0
21/08:30am 15.3 14.6 13.1 87 1.2 WSW 9 13 5 7 1015.8 1015.8 0.0
21/08:00am 14.6 13.1 13.2 91 0.8 W 13 15 7 8 1015.7 1015.7 0.0
21/07:30am 14.3 13.2 13.2 93 0.6 W 11 13 6 7 1015.6 1015.6 0.0
21/07:00am 14.2 12.4 13.3 94 0.5 W 15 17 8 9 1015.5 1015.5 0.0
21/06:30am 13.6 12.3 12.5 93 0.6 NW 11 13 6 7 1015.2 1015.2 0.0
21/06:00am 13.6 13.1 12.5 93 0.6 N 7 9 4 5 1014.9 1014.9 0.0
21/05:30am 13.4 12.9 12.5 94 0.5 N 7 7 4 4 1014.9 1014.9 0.0
21/05:00am 13.8 13.6 12.9 94 0.5 NE 6 9 3 5 1014.7 1014.7 0.0
21/04:30am 14.3 14.2 13.2 93 0.6 NE 6 7 3 4 1015.0 1015.0 0.0
21/04:00am 14.1 13.6 12.8 92 0.7 NNE 7 9 4 5 1015.1 1015.1 0.0
21/03:30am 14.5 14.1 13.0 91 0.8 NNE 7 9 4 5 1015.3 1015.3 0.0
21/03:00am 15.0 14.2 13.0 88 1.1 NE 9 11 5 6 1015.5 1015.5 0.0
21/02:30am 15.1 14.6 12.5 84 1.4 NNE 7 11 4 6 1015.6 1015.6 0.0
21/02:00am 15.3 14.4 12.6 84 1.5 N 9 15 5 8 1015.9 1015.9 0.0
21/01:30am 14.2 13.1 12.0 87 1.2 N 9 11 5 6 1016.2 1016.2 0.0
21/01:00am 14.0 12.9 12.0 88 1.1 N 9 13 5 7 1016.3 1016.3 0.0
21/12:30am 14.3 12.8 11.9 85 1.3 NNE 11 15 6 8 1016.5 1016.5 0.0
21/12:00am 14.3 12.7 11.7 84 1.4 N 11 13 6 7 1016.7 1016.7 0.0
 
Date/Time
EDT
Temp
°C
App
Temp
°C
Dew
Point
°C
Rel
Hum
%
Delta-T
°C
Wind Press
QNH
hPa
Press
MSL
hPa
Rain since
9am
mm
Dir  Spd
km/h
Gust
km/h
Spd
kts
Gust
kts
20/11:30pm 15.3 12.3 12.0 81 1.8 N 19 20 10 11 1016.6 1016.6 0.0

Other formats

Comma delimited format used in spreadsheet applications
http://www.bom.gov.au/fwo/IDV60801/IDV60801.94933.axf

JavaScript Object Notation format (JSON) in row-major order
http://www.bom.gov.au/fwo/IDV60801/IDV60801.94933.json

Data quality

Most of these data are generated automatically and are frequently updated. Quality checks on data are not normally performed. It is possible for incorrect values to appear. Refer to information at About Latest Weather Observations and please check the disclaimer before using these data.